CYGR

Îles-de-la-Madeleine Airport

Îles-de-la-Madeleine, Quebec, Canada
METAR CYGR 092100Z 28019G25KT 15SM -SHSN BKN024 M05/M10 A3000 RMK CU7 SLP162
Observed Flight Rules
Dec-9 @ 21:00 UTC (40 minutes ago) Marginal Visual Flight Rules
Wind Visibility Clouds Conditions
280° at 19 knots
 Gusting to 25 knots
15 miles
  • Broken at 2,400' AGL
  • Light Snow
Temperatures Readings
Current -5°C / 23°F
Dewpoint -10°C / 14°F
Humidity 68%
Altimeter 30" Hg
Pressure 1016.2 hPa
Elevation 10
METAR CYGR 092100Z 28019G25KT 15SM -SHSN BKN024 M05/M10 A3000 RMK CU7 SLP162
Observed Flight Rules
Dec-9 @ 21:00 UTC
(40 minutes ago)
MVFR
Wind Visibility
280° at 19 knots
 Gusting to 25 knots
15 miles
Clouds
  • Broken at 2,400' AGL
Conditions
  • Light Snow
Temperature Dewpoint
-5°C / 23°F -10°C / 14°F
Humidity Altimeter Pressure
68% 30" Hg 1016.2 hPa